sensor_id;sensor_type;location;lat;lon;timestamp;P1;durP1;ratioP1;P2;durP2;ratioP2
14235;SDS011;7202;50.718;7.072;2023-07-30T00:00:27;5.72;;;2.20;;
14235;SDS011;7202;50.718;7.072;2023-07-30T00:02:56;5.72;;;2.22;;
14235;SDS011;7202;50.718;7.072;2023-07-30T00:05:25;4.75;;;2.30;;
14235;SDS011;7202;50.718;7.072;2023-07-30T00:07:53;3.92;;;2.40;;
14235;SDS011;7202;50.718;7.072;2023-07-30T00:10:22;7.43;;;2.08;;
14235;SDS011;7202;50.718;7.072;2023-07-30T00:12:50;4.50;;;2.35;;
14235;SDS011;7202;50.718;7.072;2023-07-30T00:15:19;6.93;;;2.50;;
14235;SDS011;7202;50.718;7.072;2023-07-30T00:17:49;7.40;;;2.00;;
14235;SDS011;7202;50.718;7.072;2023-07-30T00:20:18;4.28;;;1.98;;
14235;SDS011;7202;50.718;7.072;2023-07-30T00:22:46;2.28;;;2.03;;
14235;SDS011;7202;50.718;7.072;2023-07-30T00:25:15;4.22;;;2.22;;
14235;SDS011;7202;50.718;7.072;2023-07-30T00:27:43;5.47;;;3.05;;
14235;SDS011;7202;50.718;7.072;2023-07-30T00:30:12;5.05;;;2.35;;
14235;SDS011;7202;50.718;7.072;2023-07-30T00:32:40;4.53;;;2.05;;
14235;SDS011;7202;50.718;7.072;2023-07-30T00:35:13;6.55;;;2.38;;
14235;SDS011;7202;50.718;7.072;2023-07-30T00:37:41;6.97;;;2.22;;
14235;SDS011;7202;50.718;7.072;2023-07-30T00:40:11;4.20;;;2.35;;
14235;SDS011;7202;50.718;7.072;2023-07-30T00:42:40;2.92;;;2.30;;
14235;SDS011;7202;50.718;7.072;2023-07-30T00:45:09;10.68;;;2.22;;
14235;SDS011;7202;50.718;7.072;2023-07-30T00:47:39;3.63;;;2.08;;
14235;SDS011;7202;50.718;7.072;2023-07-30T00:50:09;2.22;;;2.03;;
14235;SDS011;7202;50.718;7.072;2023-07-30T00:52:42;2.35;;;2.05;;
14235;SDS011;7202;50.718;7.072;2023-07-30T00:55:11;1.75;;;1.60;;
14235;SDS011;7202;50.718;7.072;2023-07-30T00:57:40;2.72;;;1.98;;
14235;SDS011;7202;50.718;7.072;2023-07-30T01:00:10;9.18;;;1.83;;
14235;SDS011;7202;50.718;7.072;2023-07-30T01:02:39;3.28;;;1.90;;
14235;SDS011;7202;50.718;7.072;2023-07-30T01:05:09;6.50;;;1.92;;
14235;SDS011;7202;50.718;7.072;2023-07-30T01:07:38;6.13;;;2.13;;
14235;SDS011;7202;50.718;7.072;2023-07-30T01:10:08;5.18;;;2.13;;
14235;SDS011;7202;50.718;7.072;2023-07-30T01:12:37;8.38;;;2.60;;
14235;SDS011;7202;50.718;7.072;2023-07-30T01:15:09;4.18;;;2.25;;
14235;SDS011;7202;50.718;7.072;2023-07-30T01:17:39;5.38;;;2.00;;
14235;SDS011;7202;50.718;7.072;2023-07-30T01:20:12;4.20;;;2.15;;
14235;SDS011;7202;50.718;7.072;2023-07-30T01:22:45;3.17;;;2.00;;
14235;SDS011;7202;50.718;7.072;2023-07-30T01:25:17;4.88;;;2.17;;
14235;SDS011;7202;50.718;7.072;2023-07-30T01:27:48;2.47;;;2.03;;
14235;SDS011;7202;50.718;7.072;2023-07-30T01:30:21;3.05;;;2.03;;
14235;SDS011;7202;50.718;7.072;2023-07-30T01:32:53;3.22;;;2.45;;
14235;SDS011;7202;50.718;7.072;2023-07-30T01:35:26;3.70;;;2.08;;
14235;SDS011;7202;50.718;7.072;2023-07-30T01:37:57;7.22;;;2.30;;
14235;SDS011;7202;50.718;7.072;2023-07-30T01:40:29;3.83;;;2.10;;
14235;SDS011;7202;50.718;7.072;2023-07-30T01:42:57;5.63;;;2.08;;
14235;SDS011;7202;50.718;7.072;2023-07-30T01:45:26;6.07;;;2.20;;
14235;SDS011;7202;50.718;7.072;2023-07-30T01:47:55;3.20;;;2.30;;
14235;SDS011;7202;50.718;7.072;2023-07-30T01:50:24;2.20;;;2.00;;
14235;SDS011;7202;50.718;7.072;2023-07-30T01:52:52;8.02;;;2.33;;
14235;SDS011;7202;50.718;7.072;2023-07-30T01:55:22;6.13;;;2.17;;
14235;SDS011;7202;50.718;7.072;2023-07-30T01:57:51;2.97;;;2.15;;
14235;SDS011;7202;50.718;7.072;2023-07-30T02:00:20;2.65;;;2.10;;
14235;SDS011;7202;50.718;7.072;2023-07-30T02:02:48;4.80;;;2.20;;
14235;SDS011;7202;50.718;7.072;2023-07-30T02:05:17;5.20;;;2.00;;
14235;SDS011;7202;50.718;7.072;2023-07-30T02:07:45;4.97;;;2.08;;
14235;SDS011;7202;50.718;7.072;2023-07-30T02:10:14;3.17;;;1.95;;
14235;SDS011;7202;50.718;7.072;2023-07-30T02:12:44;5.22;;;2.30;;
14235;SDS011;7202;50.718;7.072;2023-07-30T02:15:13;3.67;;;2.03;;
14235;SDS011;7202;50.718;7.072;2023-07-30T02:17:41;3.40;;;2.40;;
14235;SDS011;7202;50.718;7.072;2023-07-30T02:20:10;4.20;;;2.28;;
14235;SDS011;7202;50.718;7.072;2023-07-30T02:22:39;7.13;;;2.33;;
14235;SDS011;7202;50.718;7.072;2023-07-30T02:25:07;4.88;;;2.22;;
14235;SDS011;7202;50.718;7.072;2023-07-30T02:27:36;4.47;;;1.83;;
14235;SDS011;7202;50.718;7.072;2023-07-30T02:30:07;7.60;;;2.60;;
14235;SDS011;7202;50.718;7.072;2023-07-30T02:32:36;6.28;;;2.30;;
14235;SDS011;7202;50.718;7.072;2023-07-30T02:35:05;13.30;;;2.50;;
14235;SDS011;7202;50.718;7.072;2023-07-30T02:37:34;5.70;;;2.25;;
14235;SDS011;7202;50.718;7.072;2023-07-30T02:40:03;5.40;;;1.77;;
14235;SDS011;7202;50.718;7.072;2023-07-30T02:42:32;3.80;;;2.25;;
14235;SDS011;7202;50.718;7.072;2023-07-30T02:45:00;5.60;;;2.40;;
14235;SDS011;7202;50.718;7.072;2023-07-30T02:47:30;2.72;;;2.15;;
14235;SDS011;7202;50.718;7.072;2023-07-30T02:49:59;2.97;;;2.28;;
14235;SDS011;7202;50.718;7.072;2023-07-30T02:52:28;6.93;;;2.60;;
14235;SDS011;7202;50.718;7.072;2023-07-30T02:54:56;7.93;;;2.42;;
14235;SDS011;7202;50.718;7.072;2023-07-30T02:57:25;2.83;;;2.05;;
14235;SDS011;7202;50.718;7.072;2023-07-30T02:59:53;2.83;;;2.30;;
14235;SDS011;7202;50.718;7.072;2023-07-30T03:02:22;7.07;;;2.30;;
14235;SDS011;7202;50.718;7.072;2023-07-30T03:04:52;6.05;;;2.33;;
14235;SDS011;7202;50.718;7.072;2023-07-30T03:07:23;3.65;;;1.90;;
14235;SDS011;7202;50.718;7.072;2023-07-30T03:09:52;13.10;;;2.28;;
14235;SDS011;7202;50.718;7.072;2023-07-30T03:12:21;3.72;;;2.15;;
14235;SDS011;7202;50.718;7.072;2023-07-30T03:14:50;3.78;;;2.13;;
14235;SDS011;7202;50.718;7.072;2023-07-30T03:17:18;6.25;;;2.20;;
14235;SDS011;7202;50.718;7.072;2023-07-30T03:19:47;4.47;;;2.50;;
14235;SDS011;7202;50.718;7.072;2023-07-30T03:22:17;2.30;;;2.05;;
14235;SDS011;7202;50.718;7.072;2023-07-30T03:24:46;4.50;;;2.08;;
14235;SDS011;7202;50.718;7.072;2023-07-30T03:27:15;7.20;;;2.22;;
14235;SDS011;7202;50.718;7.072;2023-07-30T03:29:43;4.53;;;1.80;;
14235;SDS011;7202;50.718;7.072;2023-07-30T03:32:12;2.50;;;1.83;;
14235;SDS011;7202;50.718;7.072;2023-07-30T03:34:40;9.70;;;2.03;;
14235;SDS011;7202;50.718;7.072;2023-07-30T03:37:09;2.70;;;2.08;;
14235;SDS011;7202;50.718;7.072;2023-07-30T03:39:39;3.65;;;2.28;;
14235;SDS011;7202;50.718;7.072;2023-07-30T03:42:08;9.32;;;3.03;;
14235;SDS011;7202;50.718;7.072;2023-07-30T03:44:36;2.25;;;1.65;;
14235;SDS011;7202;50.718;7.072;2023-07-30T03:47:05;7.18;;;2.13;;
14235;SDS011;7202;50.718;7.072;2023-07-30T03:49:33;7.82;;;2.03;;
14235;SDS011;7202;50.718;7.072;2023-07-30T03:52:02;4.57;;;2.08;;
14235;SDS011;7202;50.718;7.072;2023-07-30T03:54:31;4.32;;;2.03;;
14235;SDS011;7202;50.718;7.072;2023-07-30T03:57:01;3.25;;;1.90;;
14235;SDS011;7202;50.718;7.072;2023-07-30T03:59:30;5.80;;;2.10;;
14235;SDS011;7202;50.718;7.072;2023-07-30T04:01:59;5.05;;;1.90;;
14235;SDS011;7202;50.718;7.072;2023-07-30T04:04:27;6.38;;;1.90;;
14235;SDS011;7202;50.718;7.072;2023-07-30T04:06:59;3.83;;;1.90;;
14235;SDS011;7202;50.718;7.072;2023-07-30T04:09:27;7.68;;;2.13;;
14235;SDS011;7202;50.718;7.072;2023-07-30T04:11:58;4.97;;;2.40;;
14235;SDS011;7202;50.718;7.072;2023-07-30T04:14:28;4.43;;;2.22;;
14235;SDS011;7202;50.718;7.072;2023-07-30T04:16:57;6.28;;;2.17;;
14235;SDS011;7202;50.718;7.072;2023-07-30T04:19:26;8.55;;;1.92;;
14235;SDS011;7202;50.718;7.072;2023-07-30T04:21:54;3.35;;;1.90;;
14235;SDS011;7202;50.718;7.072;2023-07-30T04:24:24;4.35;;;2.35;;
14235;SDS011;7202;50.718;7.072;2023-07-30T04:26:53;4.45;;;2.20;;
14235;SDS011;7202;50.718;7.072;2023-07-30T04:29:22;3.63;;;1.90;;
14235;SDS011;7202;50.718;7.072;2023-07-30T04:31:52;7.57;;;3.33;;
14235;SDS011;7202;50.718;7.072;2023-07-30T04:34:21;4.38;;;2.33;;
14235;SDS011;7202;50.718;7.072;2023-07-30T04:36:50;4.45;;;2.42;;
14235;SDS011;7202;50.718;7.072;2023-07-30T04:39:20;4.50;;;2.13;;
14235;SDS011;7202;50.718;7.072;2023-07-30T04:41:50;4.22;;;2.30;;
14235;SDS011;7202;50.718;7.072;2023-07-30T04:44:19;5.93;;;2.00;;
14235;SDS011;7202;50.718;7.072;2023-07-30T04:46:47;5.45;;;2.22;;
14235;SDS011;7202;50.718;7.072;2023-07-30T04:49:18;5.90;;;2.05;;
14235;SDS011;7202;50.718;7.072;2023-07-30T04:51:46;6.18;;;2.05;;
14235;SDS011;7202;50.718;7.072;2023-07-30T04:54:16;6.25;;;1.92;;
14235;SDS011;7202;50.718;7.072;2023-07-30T04:56:45;4.15;;;1.95;;
14235;SDS011;7202;50.718;7.072;2023-07-30T04:59:14;6.10;;;2.25;;
14235;SDS011;7202;50.718;7.072;2023-07-30T05:01:42;8.23;;;2.00;;
14235;SDS011;7202;50.718;7.072;2023-07-30T05:04:11;7.10;;;2.47;;
14235;SDS011;7202;50.718;7.072;2023-07-30T05:06:41;5.90;;;2.00;;
14235;SDS011;7202;50.718;7.072;2023-07-30T05:09:09;2.97;;;1.80;;
14235;SDS011;7202;50.718;7.072;2023-07-30T05:11:38;7.78;;;2.30;;
14235;SDS011;7202;50.718;7.072;2023-07-30T05:14:07;3.75;;;1.60;;
14235;SDS011;7202;50.718;7.072;2023-07-30T05:16:45;7.25;;;2.03;;
14235;SDS011;7202;50.718;7.072;2023-07-30T05:19:13;6.60;;;1.77;;
14235;SDS011;7202;50.718;7.072;2023-07-30T05:21:43;9.00;;;2.60;;
14235;SDS011;7202;50.718;7.072;2023-07-30T05:24:12;5.22;;;2.17;;
14235;SDS011;7202;50.718;7.072;2023-07-30T05:26:41;3.53;;;2.03;;
14235;SDS011;7202;50.718;7.072;2023-07-30T05:29:09;10.48;;;3.13;;
14235;SDS011;7202;50.718;7.072;2023-07-30T05:31:38;6.28;;;2.17;;
14235;SDS011;7202;50.718;7.072;2023-07-30T05:34:07;6.82;;;2.58;;
14235;SDS011;7202;50.718;7.072;2023-07-30T05:36:36;5.68;;;2.22;;
14235;SDS011;7202;50.718;7.072;2023-07-30T05:39:05;3.47;;;1.88;;
14235;SDS011;7202;50.718;7.072;2023-07-30T05:41:34;4.25;;;2.08;;
14235;SDS011;7202;50.718;7.072;2023-07-30T05:44:03;3.88;;;1.98;;
14235;SDS011;7202;50.718;7.072;2023-07-30T05:46:32;3.97;;;2.00;;
14235;SDS011;7202;50.718;7.072;2023-07-30T05:49:00;5.22;;;2.40;;
14235;SDS011;7202;50.718;7.072;2023-07-30T05:51:29;5.20;;;1.92;;
14235;SDS011;7202;50.718;7.072;2023-07-30T05:53:58;5.10;;;2.08;;
14235;SDS011;7202;50.718;7.072;2023-07-30T05:56:28;6.57;;;2.45;;
14235;SDS011;7202;50.718;7.072;2023-07-30T05:58:56;5.72;;;2.20;;
14235;SDS011;7202;50.718;7.072;2023-07-30T06:01:25;5.60;;;2.50;;
14235;SDS011;7202;50.718;7.072;2023-07-30T06:03:53;9.32;;;2.58;;
14235;SDS011;7202;50.718;7.072;2023-07-30T06:06:22;4.03;;;2.13;;
14235;SDS011;7202;50.718;7.072;2023-07-30T06:08:54;7.05;;;2.13;;
14235;SDS011;7202;50.718;7.072;2023-07-30T06:11:23;5.53;;;2.17;;
14235;SDS011;7202;50.718;7.072;2023-07-30T06:13:53;6.10;;;2.20;;
14235;SDS011;7202;50.718;7.072;2023-07-30T06:16:21;4.63;;;2.22;;
14235;SDS011;7202;50.718;7.072;2023-07-30T06:18:50;5.07;;;2.15;;
14235;SDS011;7202;50.718;7.072;2023-07-30T06:21:19;8.68;;;2.33;;
14235;SDS011;7202;50.718;7.072;2023-07-30T06:23:47;7.30;;;2.83;;
14235;SDS011;7202;50.718;7.072;2023-07-30T06:26:16;4.05;;;2.40;;
14235;SDS011;7202;50.718;7.072;2023-07-30T06:28:44;3.95;;;2.15;;
14235;SDS011;7202;50.718;7.072;2023-07-30T06:31:14;7.35;;;2.17;;
14235;SDS011;7202;50.718;7.072;2023-07-30T06:33:43;8.50;;;2.50;;
14235;SDS011;7202;50.718;7.072;2023-07-30T06:36:12;7.40;;;2.42;;
14235;SDS011;7202;50.718;7.072;2023-07-30T06:38:41;9.32;;;5.10;;
14235;SDS011;7202;50.718;7.072;2023-07-30T06:41:09;7.45;;;4.35;;
14235;SDS011;7202;50.718;7.072;2023-07-30T06:43:38;7.13;;;2.45;;
14235;SDS011;7202;50.718;7.072;2023-07-30T06:46:07;4.18;;;2.40;;
14235;SDS011;7202;50.718;7.072;2023-07-30T06:48:37;4.43;;;2.20;;
14235;SDS011;7202;50.718;7.072;2023-07-30T06:51:06;7.03;;;2.45;;
14235;SDS011;7202;50.718;7.072;2023-07-30T06:53:35;3.30;;;2.05;;
14235;SDS011;7202;50.718;7.072;2023-07-30T06:56:04;8.55;;;3.00;;
14235;SDS011;7202;50.718;7.072;2023-07-30T06:58:32;4.75;;;2.55;;
14235;SDS011;7202;50.718;7.072;2023-07-30T07:01:03;4.97;;;2.22;;
14235;SDS011;7202;50.718;7.072;2023-07-30T07:03:32;5.63;;;2.40;;
14235;SDS011;7202;50.718;7.072;2023-07-30T07:06:02;10.27;;;2.13;;
14235;SDS011;7202;50.718;7.072;2023-07-30T07:08:31;5.18;;;2.40;;
14235;SDS011;7202;50.718;7.072;2023-07-30T07:11:00;4.00;;;2.40;;
14235;SDS011;7202;50.718;7.072;2023-07-30T07:13:28;6.15;;;2.42;;
14235;SDS011;7202;50.718;7.072;2023-07-30T07:15:57;7.85;;;2.40;;
14235;SDS011;7202;50.718;7.072;2023-07-30T07:18:26;11.40;;;2.70;;
14235;SDS011;7202;50.718;7.072;2023-07-30T07:20:54;6.65;;;2.92;;
14235;SDS011;7202;50.718;7.072;2023-07-30T07:23:24;5.70;;;2.70;;
14235;SDS011;7202;50.718;7.072;2023-07-30T07:25:53;6.18;;;2.40;;
14235;SDS011;7202;50.718;7.072;2023-07-30T07:28:21;6.68;;;2.25;;
14235;SDS011;7202;50.718;7.072;2023-07-30T07:30:50;7.85;;;2.92;;
14235;SDS011;7202;50.718;7.072;2023-07-30T07:33:19;5.38;;;2.60;;
14235;SDS011;7202;50.718;7.072;2023-07-30T07:35:47;4.72;;;2.50;;
14235;SDS011;7202;50.718;7.072;2023-07-30T07:38:16;5.18;;;2.20;;
14235;SDS011;7202;50.718;7.072;2023-07-30T07:40:46;3.70;;;2.75;;
14235;SDS011;7202;50.718;7.072;2023-07-30T07:43:17;8.35;;;2.60;;
14235;SDS011;7202;50.718;7.072;2023-07-30T07:45:46;6.15;;;2.35;;
14235;SDS011;7202;50.718;7.072;2023-07-30T07:48:15;5.70;;;2.90;;
14235;SDS011;7202;50.718;7.072;2023-07-30T07:50:43;7.35;;;2.90;;
14235;SDS011;7202;50.718;7.072;2023-07-30T07:53:12;5.47;;;2.65;;
14235;SDS011;7202;50.718;7.072;2023-07-30T07:55:41;4.80;;;2.40;;
14235;SDS011;7202;50.718;7.072;2023-07-30T07:58:11;8.43;;;2.63;;
14235;SDS011;7202;50.718;7.072;2023-07-30T08:00:39;4.03;;;2.10;;
14235;SDS011;7202;50.718;7.072;2023-07-30T08:03:08;6.03;;;2.53;;
14235;SDS011;7202;50.718;7.072;2023-07-30T08:05:37;5.68;;;2.63;;
14235;SDS011;7202;50.718;7.072;2023-07-30T08:08:05;6.90;;;2.72;;
14235;SDS011;7202;50.718;7.072;2023-07-30T08:10:37;7.13;;;2.63;;
14235;SDS011;7202;50.718;7.072;2023-07-30T08:13:07;4.88;;;2.58;;
14235;SDS011;7202;50.718;7.072;2023-07-30T08:15:37;12.85;;;4.85;;
14235;SDS011;7202;50.718;7.072;2023-07-30T08:18:06;5.55;;;2.67;;
14235;SDS011;7202;50.718;7.072;2023-07-30T08:20:35;4.22;;;2.53;;
14235;SDS011;7202;50.718;7.072;2023-07-30T08:23:04;5.90;;;2.65;;
14235;SDS011;7202;50.718;7.072;2023-07-30T08:25:33;7.13;;;2.70;;
14235;SDS011;7202;50.718;7.072;2023-07-30T08:28:01;4.88;;;2.95;;
14235;SDS011;7202;50.718;7.072;2023-07-30T08:30:30;8.57;;;2.90;;
14235;SDS011;7202;50.718;7.072;2023-07-30T08:33:00;5.85;;;2.35;;
14235;SDS011;7202;50.718;7.072;2023-07-30T08:35:28;7.15;;;2.50;;
14235;SDS011;7202;50.718;7.072;2023-07-30T08:37:57;5.60;;;2.40;;
14235;SDS011;7202;50.718;7.072;2023-07-30T08:40:26;9.65;;;2.22;;
14235;SDS011;7202;50.718;7.072;2023-07-30T08:42:54;6.60;;;2.38;;
14235;SDS011;7202;50.718;7.072;2023-07-30T08:45:23;4.32;;;2.28;;
14235;SDS011;7202;50.718;7.072;2023-07-30T08:47:52;7.82;;;2.60;;
14235;SDS011;7202;50.718;7.072;2023-07-30T08:50:22;6.43;;;1.90;;
14235;SDS011;7202;50.718;7.072;2023-07-30T08:52:51;6.28;;;2.30;;
14235;SDS011;7202;50.718;7.072;2023-07-30T08:55:20;4.93;;;1.90;;
14235;SDS011;7202;50.718;7.072;2023-07-30T08:57:50;6.15;;;2.08;;
14235;SDS011;7202;50.718;7.072;2023-07-30T09:00:20;6.70;;;2.05;;
14235;SDS011;7202;50.718;7.072;2023-07-30T09:02:52;7.63;;;2.10;;
14235;SDS011;7202;50.718;7.072;2023-07-30T09:05:25;6.72;;;2.42;;
14235;SDS011;7202;50.718;7.072;2023-07-30T09:07:56;7.78;;;2.80;;
14235;SDS011;7202;50.718;7.072;2023-07-30T09:10:25;10.60;;;2.92;;
14235;SDS011;7202;50.718;7.072;2023-07-30T09:12:55;7.10;;;1.95;;
14235;SDS011;7202;50.718;7.072;2023-07-30T09:15:29;5.85;;;2.17;;
14235;SDS011;7202;50.718;7.072;2023-07-30T09:17:59;8.27;;;2.42;;
14235;SDS011;7202;50.718;7.072;2023-07-30T09:20:34;11.10;;;2.42;;
14235;SDS011;7202;50.718;7.072;2023-07-30T09:23:05;6.97;;;2.00;;
14235;SDS011;7202;50.718;7.072;2023-07-30T09:25:35;7.95;;;2.63;;
14235;SDS011;7202;50.718;7.072;2023-07-30T09:28:05;9.07;;;2.33;;
14235;SDS011;7202;50.718;7.072;2023-07-30T09:30:34;5.28;;;1.83;;
14235;SDS011;7202;50.718;7.072;2023-07-30T09:33:02;5.00;;;2.05;;
14235;SDS011;7202;50.718;7.072;2023-07-30T09:35:32;5.40;;;1.95;;
14235;SDS011;7202;50.718;7.072;2023-07-30T09:38:02;6.75;;;2.15;;
14235;SDS011;7202;50.718;7.072;2023-07-30T09:40:32;8.30;;;2.38;;
14235;SDS011;7202;50.718;7.072;2023-07-30T09:43:02;5.93;;;1.88;;
14235;SDS011;7202;50.718;7.072;2023-07-30T09:45:33;13.88;;;2.38;;
14235;SDS011;7202;50.718;7.072;2023-07-30T09:48:03;7.00;;;1.90;;
14235;SDS011;7202;50.718;7.072;2023-07-30T09:50:35;5.90;;;1.80;;
14235;SDS011;7202;50.718;7.072;2023-07-30T09:53:04;3.97;;;1.58;;
14235;SDS011;7202;50.718;7.072;2023-07-30T09:55:33;5.82;;;1.88;;
14235;SDS011;7202;50.718;7.072;2023-07-30T09:58:02;8.63;;;1.90;;
14235;SDS011;7202;50.718;7.072;2023-07-30T10:00:30;11.65;;;2.42;;
14235;SDS011;7202;50.718;7.072;2023-07-30T10:02:59;4.63;;;1.70;;
14235;SDS011;7202;50.718;7.072;2023-07-30T10:05:32;6.80;;;1.88;;
14235;SDS011;7202;50.718;7.072;2023-07-30T10:08:04;6.38;;;1.50;;
14235;SDS011;7202;50.718;7.072;2023-07-30T10:10:36;6.47;;;1.73;;
14235;SDS011;7202;50.718;7.072;2023-07-30T10:13:05;5.25;;;1.70;;
14235;SDS011;7202;50.718;7.072;2023-07-30T10:15:37;5.55;;;1.60;;
14235;SDS011;7202;50.718;7.072;2023-07-30T10:18:06;5.75;;;1.60;;
14235;SDS011;7202;50.718;7.072;2023-07-30T10:20:37;4.75;;;1.42;;
14235;SDS011;7202;50.718;7.072;2023-07-30T10:23:06;6.20;;;1.92;;
14235;SDS011;7202;50.718;7.072;2023-07-30T10:25:45;7.93;;;1.70;;
14235;SDS011;7202;50.718;7.072;2023-07-30T10:28:27;4.90;;;1.50;;
14235;SDS011;7202;50.718;7.072;2023-07-30T10:31:00;5.07;;;1.50;;
14235;SDS011;7202;50.718;7.072;2023-07-30T10:33:46;10.27;;;1.70;;
14235;SDS011;7202;50.718;7.072;2023-07-30T10:36:20;5.75;;;1.60;;
14235;SDS011;7202;50.718;7.072;2023-07-30T10:39:00;5.28;;;1.75;;
14235;SDS011;7202;50.718;7.072;2023-07-30T10:41:39;6.30;;;1.58;;
14235;SDS011;7202;50.718;7.072;2023-07-30T10:44:17;3.90;;;1.35;;
14235;SDS011;7202;50.718;7.072;2023-07-30T10:46:47;6.80;;;1.83;;
14235;SDS011;7202;50.718;7.072;2023-07-30T10:49:15;7.65;;;1.73;;
14235;SDS011;7202;50.718;7.072;2023-07-30T10:51:45;5.40;;;1.30;;
14235;SDS011;7202;50.718;7.072;2023-07-30T10:54:14;8.10;;;1.30;;
14235;SDS011;7202;50.718;7.072;2023-07-30T10:56:43;4.72;;;1.23;;
14235;SDS011;7202;50.718;7.072;2023-07-30T10:59:13;3.70;;;1.55;;
14235;SDS011;7202;50.718;7.072;2023-07-30T11:01:43;5.45;;;1.50;;
14235;SDS011;7202;50.718;7.072;2023-07-30T11:04:13;3.45;;;1.48;;
14235;SDS011;7202;50.718;7.072;2023-07-30T11:06:46;3.75;;;1.73;;
14235;SDS011;7202;50.718;7.072;2023-07-30T11:09:19;5.85;;;1.42;;
14235;SDS011;7202;50.718;7.072;2023-07-30T11:11:48;4.82;;;1.25;;
14235;SDS011;7202;50.718;7.072;2023-07-30T11:14:19;4.28;;;1.40;;
14235;SDS011;7202;50.718;7.072;2023-07-30T11:16:48;6.97;;;1.50;;
14235;SDS011;7202;50.718;7.072;2023-07-30T11:19:18;4.80;;;1.50;;
14235;SDS011;7202;50.718;7.072;2023-07-30T11:21:49;2.42;;;1.10;;
14235;SDS011;7202;50.718;7.072;2023-07-30T11:24:20;6.13;;;1.83;;
14235;SDS011;7202;50.718;7.072;2023-07-30T11:26:57;3.45;;;1.50;;
14235;SDS011;7202;50.718;7.072;2023-07-30T11:29:27;4.10;;;1.33;;
14235;SDS011;7202;50.718;7.072;2023-07-30T11:31:56;3.53;;;1.33;;
14235;SDS011;7202;50.718;7.072;2023-07-30T11:34:26;3.13;;;1.10;;
14235;SDS011;7202;50.718;7.072;2023-07-30T11:36:56;3.83;;;1.38;;
14235;SDS011;7202;50.718;7.072;2023-07-30T11:39:26;5.63;;;1.10;;
14235;SDS011;7202;50.718;7.072;2023-07-30T11:41:56;3.00;;;0.90;;
14235;SDS011;7202;50.718;7.072;2023-07-30T11:44:31;4.13;;;1.33;;
14235;SDS011;7202;50.718;7.072;2023-07-30T11:47:00;4.75;;;1.20;;
14235;SDS011;7202;50.718;7.072;2023-07-30T11:49:30;2.38;;;1.15;;
14235;SDS011;7202;50.718;7.072;2023-07-30T11:52:07;3.92;;;1.30;;
14235;SDS011;7202;50.718;7.072;2023-07-30T11:54:36;2.13;;;0.93;;
14235;SDS011;7202;50.718;7.072;2023-07-30T11:57:05;1.85;;;0.80;;
14235;SDS011;7202;50.718;7.072;2023-07-30T11:59:34;3.78;;;1.30;;
14235;SDS011;7202;50.718;7.072;2023-07-30T12:02:06;3.25;;;1.02;;
14235;SDS011;7202;50.718;7.072;2023-07-30T12:04:42;3.30;;;1.23;;
14235;SDS011;7202;50.718;7.072;2023-07-30T12:07:23;2.80;;;1.00;;
14235;SDS011;7202;50.718;7.072;2023-07-30T12:09:52;6.63;;;1.17;;
14235;SDS011;7202;50.718;7.072;2023-07-30T12:12:24;2.63;;;0.80;;
14235;SDS011;7202;50.718;7.072;2023-07-30T12:14:53;2.80;;;0.90;;
14235;SDS011;7202;50.718;7.072;2023-07-30T12:17:22;1.77;;;0.90;;
14235;SDS011;7202;50.718;7.072;2023-07-30T12:19:51;2.72;;;0.82;;
14235;SDS011;7202;50.718;7.072;2023-07-30T12:22:19;3.83;;;1.48;;
14235;SDS011;7202;50.718;7.072;2023-07-30T12:24:49;4.38;;;1.30;;
14235;SDS011;7202;50.718;7.072;2023-07-30T12:27:18;6.45;;;1.42;;
14235;SDS011;7202;50.718;7.072;2023-07-30T12:29:47;2.60;;;1.20;;
14235;SDS011;7202;50.718;7.072;2023-07-30T12:32:15;5.88;;;1.42;;
14235;SDS011;7202;50.718;7.072;2023-07-30T12:34:44;5.57;;;1.40;;
14235;SDS011;7202;50.718;7.072;2023-07-30T12:37:13;5.13;;;1.50;;
14235;SDS011;7202;50.718;7.072;2023-07-30T12:39:42;4.65;;;1.23;;
14235;SDS011;7202;50.718;7.072;2023-07-30T12:42:11;5.30;;;1.27;;
14235;SDS011;7202;50.718;7.072;2023-07-30T12:44:40;3.83;;;1.50;;
14235;SDS011;7202;50.718;7.072;2023-07-30T12:47:09;3.92;;;1.27;;
14235;SDS011;7202;50.718;7.072;2023-07-30T12:49:38;5.50;;;1.65;;
14235;SDS011;7202;50.718;7.072;2023-07-30T12:52:07;2.92;;;1.10;;
14235;SDS011;7202;50.718;7.072;2023-07-30T12:54:36;3.45;;;1.48;;
14235;SDS011;7202;50.718;7.072;2023-07-30T12:57:05;3.45;;;1.40;;
14235;SDS011;7202;50.718;7.072;2023-07-30T12:59:36;7.00;;;1.48;;
14235;SDS011;7202;50.718;7.072;2023-07-30T13:02:05;3.60;;;1.33;;
14235;SDS011;7202;50.718;7.072;2023-07-30T13:04:34;2.67;;;1.27;;
14235;SDS011;7202;50.718;7.072;2023-07-30T13:07:02;3.47;;;1.20;;
14235;SDS011;7202;50.718;7.072;2023-07-30T13:09:31;6.22;;;1.40;;
14235;SDS011;7202;50.718;7.072;2023-07-30T13:12:00;3.05;;;1.10;;
14235;SDS011;7202;50.718;7.072;2023-07-30T13:14:29;3.17;;;1.20;;
14235;SDS011;7202;50.718;7.072;2023-07-30T13:16:58;2.17;;;1.05;;
14235;SDS011;7202;50.718;7.072;2023-07-30T13:19:27;3.95;;;1.25;;
14235;SDS011;7202;50.718;7.072;2023-07-30T13:21:57;3.50;;;1.45;;
14235;SDS011;7202;50.718;7.072;2023-07-30T13:24:25;5.15;;;1.33;;
14235;SDS011;7202;50.718;7.072;2023-07-30T13:26:56;5.53;;;1.42;;
14235;SDS011;7202;50.718;7.072;2023-07-30T13:29:25;6.57;;;1.70;;
14235;SDS011;7202;50.718;7.072;2023-07-30T13:31:53;2.08;;;1.00;;
14235;SDS011;7202;50.718;7.072;2023-07-30T13:34:23;3.88;;;1.30;;
14235;SDS011;7202;50.718;7.072;2023-07-30T13:36:52;6.15;;;1.15;;
14235;SDS011;7202;50.718;7.072;2023-07-30T13:39:20;3.58;;;1.00;;
14235;SDS011;7202;50.718;7.072;2023-07-30T13:41:49;5.28;;;1.40;;
14235;SDS011;7202;50.718;7.072;2023-07-30T13:44:18;3.88;;;1.30;;
14235;SDS011;7202;50.718;7.072;2023-07-30T13:46:47;4.97;;;1.92;;
14235;SDS011;7202;50.718;7.072;2023-07-30T13:49:17;3.03;;;1.10;;
14235;SDS011;7202;50.718;7.072;2023-07-30T13:51:47;7.63;;;2.15;;
14235;SDS011;7202;50.718;7.072;2023-07-30T13:54:15;5.10;;;1.35;;
14235;SDS011;7202;50.718;7.072;2023-07-30T13:56:44;5.55;;;1.60;;
14235;SDS011;7202;50.718;7.072;2023-07-30T13:59:12;4.28;;;1.40;;
14235;SDS011;7202;50.718;7.072;2023-07-30T14:01:41;2.67;;;1.08;;
14235;SDS011;7202;50.718;7.072;2023-07-30T14:04:09;3.50;;;1.50;;
14235;SDS011;7202;50.718;7.072;2023-07-30T14:06:38;3.80;;;1.35;;
14235;SDS011;7202;50.718;7.072;2023-07-30T14:09:08;2.60;;;1.00;;
14235;SDS011;7202;50.718;7.072;2023-07-30T14:11:37;5.60;;;1.20;;
14235;SDS011;7202;50.718;7.072;2023-07-30T14:14:07;4.88;;;1.25;;
14235;SDS011;7202;50.718;7.072;2023-07-30T14:16:36;4.55;;;1.30;;
14235;SDS011;7202;50.718;7.072;2023-07-30T14:19:05;3.53;;;1.15;;
14235;SDS011;7202;50.718;7.072;2023-07-30T14:21:33;2.30;;;1.15;;
14235;SDS011;7202;50.718;7.072;2023-07-30T14:24:03;3.05;;;1.00;;
14235;SDS011;7202;50.718;7.072;2023-07-30T14:26:33;4.05;;;1.30;;
14235;SDS011;7202;50.718;7.072;2023-07-30T14:29:01;4.10;;;1.27;;
14235;SDS011;7202;50.718;7.072;2023-07-30T14:31:30;5.32;;;1.38;;
14235;SDS011;7202;50.718;7.072;2023-07-30T14:33:58;2.08;;;1.00;;
14235;SDS011;7202;50.718;7.072;2023-07-30T14:36:27;5.40;;;1.25;;
14235;SDS011;7202;50.718;7.072;2023-07-30T14:38:55;2.45;;;1.10;;
14235;SDS011;7202;50.718;7.072;2023-07-30T14:41:24;2.90;;;1.35;;
14235;SDS011;7202;50.718;7.072;2023-07-30T14:43:54;3.78;;;1.35;;
14235;SDS011;7202;50.718;7.072;2023-07-30T14:46:23;3.95;;;0.98;;
14235;SDS011;7202;50.718;7.072;2023-07-30T14:48:51;2.92;;;1.33;;
14235;SDS011;7202;50.718;7.072;2023-07-30T14:51:20;4.03;;;1.25;;
14235;SDS011;7202;50.718;7.072;2023-07-30T14:53:49;4.05;;;1.60;;
14235;SDS011;7202;50.718;7.072;2023-07-30T14:56:18;5.90;;;1.35;;
14235;SDS011;7202;50.718;7.072;2023-07-30T14:58:46;7.38;;;1.40;;
14235;SDS011;7202;50.718;7.072;2023-07-30T15:01:16;5.63;;;1.25;;
14235;SDS011;7202;50.718;7.072;2023-07-30T15:03:45;4.65;;;1.20;;
14235;SDS011;7202;50.718;7.072;2023-07-30T15:06:14;4.38;;;1.48;;
14235;SDS011;7202;50.718;7.072;2023-07-30T15:08:42;5.15;;;1.40;;
14235;SDS011;7202;50.718;7.072;2023-07-30T15:11:11;2.50;;;1.17;;
14235;SDS011;7202;50.718;7.072;2023-07-30T15:13:40;2.20;;;1.15;;